createdAt,value
2018-11-11T01:29:34.727Z,1002.33
2018-11-11T01:29:35.304Z,1002.33
2018-11-11T01:29:35.900Z,1002.30
2018-11-11T01:29:36.500Z,1002.29
2018-11-11T01:29:37.102Z,1002.35
2018-11-11T01:29:37.701Z,1002.36
2018-11-11T01:29:38.301Z,1002.34
2018-11-11T01:29:38.905Z,1002.34
2018-11-11T01:30:32.380Z,1002.34
2018-11-11T01:30:32.954Z,1002.33
2018-11-11T01:30:33.555Z,1002.33
2018-11-11T01:30:34.153Z,1002.35
2018-11-11T01:30:34.753Z,1002.33
2018-11-11T01:30:35.353Z,1002.30
2018-11-11T01:30:35.951Z,1002.33
2018-11-11T01:30:36.553Z,1002.31
2018-11-11T01:31:31.032Z,1002.30
2018-11-11T01:31:31.633Z,1002.31
2018-11-11T01:31:32.230Z,1002.30
2018-11-11T01:31:32.831Z,1002.29
2018-11-11T01:31:33.429Z,1002.27
2018-11-11T01:31:34.034Z,1002.31
2018-11-11T01:31:34.629Z,1002.30
2018-11-11T01:31:35.229Z,1002.32
2018-11-11T01:32:28.685Z,1002.31
2018-11-11T01:32:29.284Z,1002.25
2018-11-11T01:32:29.882Z,1002.31
2018-11-11T01:32:30.482Z,1002.30
2018-11-11T01:32:31.082Z,1002.25
2018-11-11T01:32:31.684Z,1002.30
2018-11-11T01:32:32.282Z,1002.32
2018-11-11T01:32:32.883Z,1002.31
2018-11-11T01:33:27.360Z,1002.28
2018-11-11T01:33:27.957Z,1002.33
2018-11-11T01:33:28.558Z,1002.30
2018-11-11T01:33:29.159Z,1002.31
2018-11-11T01:33:29.765Z,1002.31
2018-11-11T01:33:30.357Z,1002.32
2018-11-11T01:33:30.957Z,1002.32
2018-11-11T01:33:31.556Z,1002.35
2018-11-11T01:34:25.013Z,1002.31
2018-11-11T01:34:25.613Z,1002.31
2018-11-11T01:34:26.211Z,1002.31
2018-11-11T01:34:26.809Z,1002.32
2018-11-11T01:34:27.411Z,1002.28
2018-11-11T01:34:28.012Z,1002.29
2018-11-11T01:34:28.611Z,1002.30
2018-11-11T01:34:29.210Z,1002.26
2018-11-11T01:35:23.721Z,1002.26
2018-11-11T01:35:24.289Z,1002.27
2018-11-11T01:35:24.889Z,1002.27
2018-11-11T01:35:25.485Z,1002.30
2018-11-11T01:35:26.087Z,1002.27
2018-11-11T01:35:26.686Z,1002.27
2018-11-11T01:35:27.287Z,1002.26
2018-11-11T01:35:27.886Z,1002.29
2018-11-11T01:36:22.368Z,1002.30
2018-11-11T01:36:22.961Z,1002.32
2018-11-11T01:36:23.564Z,1002.32
2018-11-11T01:36:24.161Z,1002.29
2018-11-11T01:36:24.762Z,1002.32
2018-11-11T01:36:25.361Z,1002.28
2018-11-11T01:36:25.960Z,1002.28
2018-11-11T01:36:26.561Z,1002.32
2018-11-11T01:37:20.018Z,1002.28
2018-11-11T01:37:20.615Z,1002.28
2018-11-11T01:37:21.214Z,1002.24
2018-11-11T01:37:21.814Z,1002.27
2018-11-11T01:37:22.414Z,1002.29
2018-11-11T01:37:23.015Z,1002.26
2018-11-11T01:37:23.615Z,1002.30
2018-11-11T01:37:24.215Z,1002.27
2018-11-11T01:38:17.669Z,1002.31
2018-11-11T01:38:18.267Z,1002.31
2018-11-11T01:38:18.869Z,1002.32
2018-11-11T01:38:19.471Z,1002.30
2018-11-11T01:38:20.066Z,1002.27
2018-11-11T01:38:20.669Z,1002.27
2018-11-11T01:38:21.266Z,1002.31
2018-11-11T01:38:21.871Z,1002.30
2018-11-11T01:39:16.348Z,1002.28
2018-11-11T01:39:16.941Z,1002.24
2018-11-11T01:39:17.542Z,1002.26
2018-11-11T01:39:18.142Z,1002.28
2018-11-11T01:39:18.741Z,1002.27
2018-11-11T01:39:19.340Z,1002.27
2018-11-11T01:39:19.941Z,1002.29
2018-11-11T01:39:20.540Z,1002.30
2018-11-11T01:40:15.022Z,1002.30
2018-11-11T01:40:15.618Z,1002.32
2018-11-11T01:40:16.223Z,1002.32
2018-11-11T01:40:16.818Z,1002.32
2018-11-11T01:40:17.418Z,1002.30
2018-11-11T01:40:18.019Z,1002.30
2018-11-11T01:40:18.617Z,1002.34
2018-11-11T01:40:19.218Z,1002.32
2018-11-11T01:41:13.720Z,1002.33
2018-11-11T01:41:14.293Z,1002.33
2018-11-11T01:41:14.894Z,1002.34
2018-11-11T01:41:15.494Z,1002.33
2018-11-11T01:41:16.093Z,1002.35
2018-11-11T01:41:16.694Z,1002.30
2018-11-11T01:41:17.294Z,1002.32
2018-11-11T01:41:17.892Z,1002.31
2018-11-11T01:42:11.348Z,1002.30
2018-11-11T01:42:11.946Z,1002.29
2018-11-11T01:42:12.545Z,1002.31
2018-11-11T01:42:13.146Z,1002.32
2018-11-11T01:42:13.747Z,1002.29
2018-11-11T01:42:14.347Z,1002.30
2018-11-11T01:42:14.945Z,1002.32
2018-11-11T01:42:15.546Z,1002.30
2018-11-11T01:43:10.026Z,1002.35
2018-11-11T01:43:10.621Z,1002.31
2018-11-11T01:43:11.222Z,1002.33
2018-11-11T01:43:11.822Z,1002.29
2018-11-11T01:43:12.421Z,1002.32
2018-11-11T01:43:13.022Z,1002.33
2018-11-11T01:43:13.622Z,1002.31
2018-11-11T01:43:14.220Z,1002.34
2018-11-11T01:44:08.702Z,1002.37
2018-11-11T01:44:09.296Z,1002.36
2018-11-11T01:44:09.897Z,1002.31
2018-11-11T01:44:10.499Z,1002.30
2018-11-11T01:44:11.096Z,1002.33
2018-11-11T01:44:11.697Z,1002.36
2018-11-11T01:44:12.296Z,1002.37
2018-11-11T01:44:12.894Z,1002.35
2018-11-11T01:45:06.354Z,1002.36
2018-11-11T01:45:06.950Z,1002.36
2018-11-11T01:45:07.549Z,1002.34
2018-11-11T01:45:08.152Z,1002.30
2018-11-11T01:45:08.752Z,1002.39
2018-11-11T01:45:09.346Z,1002.38
2018-11-11T01:45:09.951Z,1002.34
2018-11-11T01:45:10.548Z,1002.32
2018-11-11T01:46:04.031Z,1002.35
2018-11-11T01:46:04.602Z,1002.32
2018-11-11T01:46:05.207Z,1002.33
2018-11-11T01:46:05.802Z,1002.35
2018-11-11T01:46:06.403Z,1002.35
2018-11-11T01:46:07.000Z,1002.36
2018-11-11T01:46:07.601Z,1002.37
2018-11-11T01:46:08.202Z,1002.35
2018-11-11T01:47:01.657Z,1002.33
2018-11-11T01:47:02.258Z,1002.34
2018-11-11T01:47:02.857Z,1002.32
2018-11-11T01:47:03.452Z,1002.34
2018-11-11T01:47:04.051Z,1002.33
2018-11-11T01:47:04.652Z,1002.34
2018-11-11T01:47:05.252Z,1002.35
2018-11-11T01:47:05.851Z,1002.33
2018-11-11T01:48:00.332Z,1002.36
2018-11-11T01:48:00.928Z,1002.34
2018-11-11T01:48:01.527Z,1002.36
2018-11-11T01:48:02.135Z,1002.32
2018-11-11T01:48:02.727Z,1002.35
2018-11-11T01:48:03.327Z,1002.36
2018-11-11T01:48:03.927Z,1002.36
2018-11-11T01:48:04.528Z,1002.33
2018-11-11T01:48:59.006Z,1002.36
2018-11-11T01:48:59.607Z,1002.29
2018-11-11T01:49:00.204Z,1002.35
2018-11-11T01:49:00.804Z,1002.31
2018-11-11T01:49:01.404Z,1002.35
2018-11-11T01:49:02.005Z,1002.29
2018-11-11T01:49:02.604Z,1002.37
2018-11-11T01:49:03.206Z,1002.32
2018-11-11T01:49:57.683Z,1002.27
2018-11-11T01:49:58.281Z,1002.30
2018-11-11T01:49:58.883Z,1002.31
2018-11-11T01:49:59.480Z,1002.29
2018-11-11T01:50:00.080Z,1002.31
2018-11-11T01:50:00.679Z,1002.34
2018-11-11T01:50:01.283Z,1002.31
2018-11-11T01:50:01.880Z,1002.28
2018-11-11T01:50:55.338Z,1002.22
2018-11-11T01:50:55.932Z,1002.24
2018-11-11T01:50:56.531Z,1002.22
2018-11-11T01:50:57.131Z,1002.20
2018-11-11T01:50:57.731Z,1002.22
2018-11-11T01:50:58.330Z,1002.25
2018-11-11T01:50:58.931Z,1002.24
2018-11-11T01:50:59.530Z,1002.23
2018-11-11T01:51:54.034Z,1002.18
2018-11-11T01:51:54.608Z,1002.22
2018-11-11T01:51:55.207Z,1002.17
2018-11-11T01:51:55.807Z,1002.21
2018-11-11T01:51:56.407Z,1002.22
2018-11-11T01:51:57.008Z,1002.23
2018-11-11T01:51:57.606Z,1002.23
2018-11-11T01:51:58.206Z,1002.24
2018-11-11T01:52:51.663Z,1002.25
2018-11-11T01:52:52.260Z,1002.20
2018-11-11T01:52:52.861Z,1002.24
2018-11-11T01:52:53.459Z,1002.22
2018-11-11T01:52:54.060Z,1002.23
2018-11-11T01:52:54.659Z,1002.22
2018-11-11T01:52:55.260Z,1002.23
2018-11-11T01:52:55.859Z,1002.21
2018-11-11T01:53:50.336Z,1002.21
2018-11-11T01:53:50.936Z,1002.20
2018-11-11T01:53:51.535Z,1002.22
2018-11-11T01:53:52.138Z,1002.18
2018-11-11T01:53:52.733Z,1002.21
2018-11-11T01:53:53.335Z,1002.24
2018-11-11T01:53:53.935Z,1002.20
2018-11-11T01:53:54.533Z,1002.19
2018-11-11T01:54:47.991Z,1002.19
2018-11-11T01:54:48.588Z,1002.19
2018-11-11T01:54:49.186Z,1002.20
2018-11-11T01:54:49.787Z,1002.23
2018-11-11T01:54:50.387Z,1002.20
2018-11-11T01:54:50.986Z,1002.21
2018-11-11T01:54:51.586Z,1002.20
2018-11-11T01:54:52.187Z,1002.20
2018-11-11T01:55:45.642Z,1002.16
2018-11-11T01:55:46.242Z,1002.22
2018-11-11T01:55:46.838Z,1002.19
2018-11-11T01:55:47.438Z,1002.17
2018-11-11T01:55:48.044Z,1002.20
2018-11-11T01:55:48.639Z,1002.19
2018-11-11T01:55:49.239Z,1002.18
2018-11-11T01:55:49.840Z,1002.17
2018-11-11T01:56:44.347Z,1002.22
2018-11-11T01:56:44.913Z,1002.24
2018-11-11T01:56:45.514Z,1002.25
2018-11-11T01:56:46.113Z,1002.23
2018-11-11T01:56:46.712Z,1002.24
2018-11-11T01:56:47.338Z,1002.26
2018-11-11T01:56:47.916Z,1002.25
2018-11-11T01:56:48.514Z,1002.27
2018-11-11T01:57:43.007Z,1002.28
2018-11-11T01:57:43.590Z,1002.28
2018-11-11T01:57:44.189Z,1002.27
2018-11-11T01:57:44.791Z,1002.31
2018-11-11T01:57:45.391Z,1002.28
2018-11-11T01:57:45.991Z,1002.27
2018-11-11T01:57:46.589Z,1002.25
2018-11-11T01:57:47.190Z,1002.27
2018-11-11T01:58:40.645Z,1002.25
2018-11-11T01:58:41.243Z,1002.29
2018-11-11T01:58:41.842Z,1002.27
2018-11-11T01:58:42.441Z,1002.30
2018-11-11T01:58:43.042Z,1002.29
2018-11-11T01:58:43.641Z,1002.28
2018-11-11T01:58:44.242Z,1002.31
2018-11-11T01:58:44.841Z,1002.27
2018-11-11T01:59:39.323Z,1002.28
2018-11-11T01:59:39.917Z,1002.27
2018-11-11T01:59:40.516Z,1002.28
2018-11-11T01:59:41.116Z,1002.29
2018-11-11T01:59:41.716Z,1002.32
2018-11-11T01:59:42.316Z,1002.31
2018-11-11T01:59:42.916Z,1002.28
2018-11-11T01:59:43.518Z,1002.28
2018-11-11T02:00:37.995Z,1002.27
2018-11-11T02:00:38.593Z,1002.29
2018-11-11T02:00:39.194Z,1002.28
2018-11-11T02:00:39.794Z,1002.26
2018-11-11T02:00:40.393Z,1002.27
2018-11-11T02:00:40.992Z,1002.28
2018-11-11T02:00:41.592Z,1002.30
2018-11-11T02:00:42.192Z,1002.33
2018-11-11T02:01:35.675Z,1002.29
2018-11-11T02:01:36.246Z,1002.29
2018-11-11T02:01:36.846Z,1002.28
2018-11-11T02:01:37.451Z,1002.30
2018-11-11T02:01:38.045Z,1002.29
2018-11-11T02:01:38.645Z,1002.31
2018-11-11T02:01:39.244Z,1002.28
2018-11-11T02:01:39.845Z,1002.32
2018-11-11T02:02:34.323Z,1002.26
2018-11-11T02:02:34.921Z,1002.29
2018-11-11T02:02:35.521Z,1002.30
2018-11-11T02:02:36.120Z,1002.34
2018-11-11T02:02:36.721Z,1002.30
2018-11-11T02:02:37.319Z,1002.30
2018-11-11T02:02:37.923Z,1002.31
2018-11-11T02:02:38.524Z,1002.32
2018-11-11T02:03:32.998Z,1002.27
2018-11-11T02:03:33.598Z,1002.30
2018-11-11T02:03:34.196Z,1002.29
2018-11-11T02:03:34.796Z,1002.29
2018-11-11T02:03:35.397Z,1002.32
2018-11-11T02:03:35.995Z,1002.30
2018-11-11T02:03:36.596Z,1002.29
2018-11-11T02:03:37.197Z,1002.29
2018-11-11T02:04:30.653Z,1002.25
2018-11-11T02:04:31.249Z,1002.28
2018-11-11T02:04:31.849Z,1002.30
2018-11-11T02:04:32.448Z,1002.28
2018-11-11T02:04:33.049Z,1002.25
2018-11-11T02:04:33.649Z,1002.27
2018-11-11T02:04:34.248Z,1002.29
2018-11-11T02:04:34.848Z,1002.28
2018-11-11T02:05:29.326Z,1002.30
2018-11-11T02:05:29.925Z,1002.30
2018-11-11T02:05:30.527Z,1002.30
2018-11-11T02:05:31.123Z,1002.31
2018-11-11T02:05:31.723Z,1002.28
2018-11-11T02:05:32.322Z,1002.27
2018-11-11T02:05:32.923Z,1002.28
2018-11-11T02:05:33.523Z,1002.29
2018-11-11T02:06:28.027Z,1002.29
2018-11-11T02:06:28.600Z,1002.30
2018-11-11T02:06:29.201Z,1002.29
2018-11-11T02:06:29.799Z,1002.30
2018-11-11T02:06:30.399Z,1002.29
2018-11-11T02:06:31.001Z,1002.30
2018-11-11T02:06:31.599Z,1002.32
2018-11-11T02:06:32.203Z,1002.30
2018-11-11T02:07:25.655Z,1002.30
2018-11-11T02:07:26.252Z,1002.29
2018-11-11T02:07:26.852Z,1002.29
2018-11-11T02:07:27.452Z,1002.31
2018-11-11T02:07:28.055Z,1002.29
2018-11-11T02:07:28.652Z,1002.29
2018-11-11T02:07:29.252Z,1002.28
2018-11-11T02:07:29.852Z,1002.29
2018-11-11T02:08:24.329Z,1002.30
2018-11-11T02:08:24.927Z,1002.30
2018-11-11T02:08:25.529Z,1002.30
2018-11-11T02:08:26.127Z,1002.35
2018-11-11T02:08:26.727Z,1002.28
2018-11-11T02:08:27.327Z,1002.30
2018-11-11T02:08:27.927Z,1002.26
2018-11-11T02:08:28.526Z,1002.31
2018-11-11T02:09:23.005Z,1002.27
2018-11-11T02:09:23.603Z,1002.27
2018-11-11T02:09:24.201Z,1002.31
2018-11-11T02:09:24.803Z,1002.31
2018-11-11T02:09:25.402Z,1002.28
2018-11-11T02:09:26.003Z,1002.25
2018-11-11T02:09:26.601Z,1002.31
2018-11-11T02:09:27.203Z,1002.28
2018-11-11T02:10:20.657Z,1002.26
2018-11-11T02:10:21.255Z,1002.27
2018-11-11T02:10:21.855Z,1002.30
2018-11-11T02:10:22.455Z,1002.26
2018-11-11T02:10:23.054Z,1002.29
2018-11-11T02:10:23.654Z,1002.31
2018-11-11T02:10:24.254Z,1002.27
2018-11-11T02:10:24.855Z,1002.29
2018-11-11T02:11:19.357Z,1002.27
2018-11-11T02:11:19.930Z,1002.27
2018-11-11T02:11:20.530Z,1002.26
2018-11-11T02:11:21.128Z,1002.28
2018-11-11T02:11:21.729Z,1002.23
2018-11-11T02:11:22.330Z,1002.28
2018-11-11T02:11:22.930Z,1002.32
2018-11-11T02:11:23.528Z,1002.31
2018-11-11T02:12:16.991Z,1002.36
2018-11-11T02:12:17.583Z,1002.32
2018-11-11T02:12:18.182Z,1002.35
2018-11-11T02:12:18.784Z,1002.40
2018-11-11T02:12:19.383Z,1002.37
2018-11-11T02:12:19.982Z,1002.37
2018-11-11T02:12:20.581Z,1002.37
2018-11-11T02:12:21.182Z,1002.34
2018-11-11T02:13:14.640Z,1002.42
2018-11-11T02:13:15.234Z,1002.41
2018-11-11T02:13:15.834Z,1002.40
2018-11-11T02:13:16.435Z,1002.41
2018-11-11T02:13:17.036Z,1002.42
2018-11-11T02:13:17.633Z,1002.43
2018-11-11T02:13:18.235Z,1002.42
2018-11-11T02:13:18.833Z,1002.42
2018-11-11T02:14:13.312Z,1002.44
2018-11-11T02:14:13.909Z,1002.46
2018-11-11T02:14:14.510Z,1002.43
2018-11-11T02:14:15.108Z,1002.44
2018-11-11T02:14:15.709Z,1002.46
2018-11-11T02:14:16.308Z,1002.48
2018-11-11T02:14:16.907Z,1002.43
2018-11-11T02:14:17.509Z,1002.43
2018-11-11T02:15:11.988Z,1002.46
2018-11-11T02:15:12.585Z,1002.45
2018-11-11T02:15:13.185Z,1002.45
2018-11-11T02:15:13.786Z,1002.44
2018-11-11T02:15:14.388Z,1002.46
2018-11-11T02:15:14.984Z,1002.48
2018-11-11T02:15:15.589Z,1002.44
2018-11-11T02:15:16.186Z,1002.46
2018-11-11T02:16:09.640Z,1002.47
2018-11-11T02:16:10.237Z,1002.51
2018-11-11T02:16:10.838Z,1002.49
2018-11-11T02:16:11.437Z,1002.51
2018-11-11T02:16:12.036Z,1002.51
2018-11-11T02:16:12.637Z,1002.52
2018-11-11T02:16:13.237Z,1002.51
2018-11-11T02:16:13.837Z,1002.51
2018-11-11T02:17:07.318Z,1002.48
2018-11-11T02:17:07.890Z,1002.51
2018-11-11T02:17:08.490Z,1002.47
2018-11-11T02:17:09.089Z,1002.52
2018-11-11T02:17:09.688Z,1002.54
2018-11-11T02:17:10.290Z,1002.49
2018-11-11T02:17:10.890Z,1002.54
2018-11-11T02:17:11.488Z,1002.50
2018-11-11T02:18:04.945Z,1002.54
2018-11-11T02:18:05.542Z,1002.52
2018-11-11T02:18:06.140Z,1002.52
2018-11-11T02:18:06.740Z,1002.54
2018-11-11T02:18:07.343Z,1002.53
2018-11-11T02:18:07.940Z,1002.55
2018-11-11T02:18:08.540Z,1002.53
2018-11-11T02:18:09.140Z,1002.52
2018-11-11T02:19:02.595Z,1002.55
2018-11-11T02:19:03.194Z,1002.54
2018-11-11T02:19:03.792Z,1002.57
2018-11-11T02:19:04.393Z,1002.56
2018-11-11T02:19:04.993Z,1002.58
2018-11-11T02:19:05.598Z,1002.58
2018-11-11T02:19:06.190Z,1002.58
2018-11-11T02:19:06.790Z,1002.59
2018-11-11T02:20:00.246Z,1002.59
2018-11-11T02:20:00.844Z,1002.60
2018-11-11T02:20:01.445Z,1002.59
2018-11-11T02:20:02.045Z,1002.61
2018-11-11T02:20:02.643Z,1002.59
2018-11-11T02:20:03.244Z,1002.60
2018-11-11T02:20:03.845Z,1002.60
2018-11-11T02:20:04.444Z,1002.59
2018-11-11T02:20:59.005Z,1002.58
2018-11-11T02:20:59.523Z,1002.62
2018-11-11T02:21:00.153Z,1002.59
2018-11-11T02:21:00.725Z,1002.60
2018-11-11T02:21:01.377Z,1002.60
2018-11-11T02:21:01.934Z,1002.58
2018-11-11T02:21:02.558Z,1002.61
2018-11-11T02:21:03.162Z,1002.63
2018-11-11T02:21:56.606Z,1002.55
2018-11-11T02:21:57.171Z,1002.58
2018-11-11T02:21:57.771Z,1002.58
2018-11-11T02:21:58.375Z,1002.56
2018-11-11T02:21:58.976Z,1002.56
2018-11-11T02:21:59.569Z,1002.58
2018-11-11T02:22:00.169Z,1002.60
2018-11-11T02:22:00.770Z,1002.60
2018-11-11T02:22:54.227Z,1002.59
2018-11-11T02:22:54.823Z,1002.59
2018-11-11T02:22:55.423Z,1002.58
2018-11-11T02:22:56.030Z,1002.63
2018-11-11T02:22:56.622Z,1002.62
2018-11-11T02:22:57.222Z,1002.64
2018-11-11T02:22:57.826Z,1002.60
2018-11-11T02:22:58.421Z,1002.63
2018-11-11T02:23:51.878Z,1002.66
2018-11-11T02:23:52.475Z,1002.63
2018-11-11T02:23:53.075Z,1002.66
2018-11-11T02:23:53.675Z,1002.65
2018-11-11T02:23:54.274Z,1002.67
2018-11-11T02:23:54.882Z,1002.64
2018-11-11T02:23:55.476Z,1002.65
2018-11-11T02:23:56.076Z,1002.68
2018-11-11T02:24:50.557Z,1002.69
2018-11-11T02:24:51.149Z,1002.66
2018-11-11T02:24:51.750Z,1002.70
2018-11-11T02:24:52.347Z,1002.69
2018-11-11T02:24:52.949Z,1002.72
2018-11-11T02:24:53.548Z,1002.70
2018-11-11T02:24:54.147Z,1002.71
2018-11-11T02:24:54.748Z,1002.69
2018-11-11T02:25:49.227Z,1002.70
2018-11-11T02:25:49.825Z,1002.67
2018-11-11T02:25:50.426Z,1002.69
2018-11-11T02:25:51.025Z,1002.70
2018-11-11T02:25:51.624Z,1002.72
2018-11-11T02:25:52.225Z,1002.71
2018-11-11T02:25:52.825Z,1002.68
2018-11-11T02:25:53.425Z,1002.70
2018-11-11T02:26:47.906Z,1002.61
2018-11-11T02:26:48.501Z,1002.66
2018-11-11T02:26:49.101Z,1002.70
2018-11-11T02:26:49.701Z,1002.71
2018-11-11T02:26:50.301Z,1002.67
2018-11-11T02:26:50.900Z,1002.69
2018-11-11T02:26:51.501Z,1002.70
2018-11-11T02:26:52.101Z,1002.67
2018-11-11T02:27:45.582Z,1002.66
2018-11-11T02:27:46.154Z,1002.60
2018-11-11T02:27:46.757Z,1002.65
2018-11-11T02:27:47.355Z,1002.65
2018-11-11T02:27:47.956Z,1002.67
2018-11-11T02:27:48.553Z,1002.64
2018-11-11T02:27:49.154Z,1002.65
2018-11-11T02:27:49.753Z,1002.63
2018-11-11T02:28:43.209Z,1002.63
2018-11-11T02:28:43.807Z,1002.61
2018-11-11T02:28:44.406Z,1002.64
2018-11-11T02:28:45.006Z,1002.61
2018-11-11T02:28:45.605Z,1002.64
2018-11-11T02:28:46.206Z,1002.61
2018-11-11T02:28:46.805Z,1002.63
2018-11-11T02:28:47.404Z,1002.63
2018-11-11T02:29:41.884Z,1002.63
2018-11-11T02:29:42.485Z,1002.64
2018-11-11T02:29:43.080Z,1002.57
2018-11-11T02:29:43.682Z,1002.62
2018-11-11T02:29:44.280Z,1002.58
2018-11-11T02:29:44.881Z,1002.60
2018-11-11T02:29:45.480Z,1002.61
2018-11-11T02:29:46.080Z,1002.60
2018-11-11T02:30:39.543Z,1002.65
2018-11-11T02:30:40.135Z,1002.65
2018-11-11T02:30:40.733Z,1002.64
2018-11-11T02:30:41.333Z,1002.64
2018-11-11T02:30:41.931Z,1002.67
2018-11-11T02:30:42.532Z,1002.66
2018-11-11T02:30:43.137Z,1002.62
2018-11-11T02:30:43.732Z,1002.61
2018-11-11T02:31:37.188Z,1002.65
2018-11-11T02:31:37.785Z,1002.63
2018-11-11T02:31:38.386Z,1002.65
2018-11-11T02:31:38.985Z,1002.68
2018-11-11T02:31:39.584Z,1002.62
2018-11-11T02:31:40.186Z,1002.64
2018-11-11T02:31:40.786Z,1002.67
2018-11-11T02:31:41.385Z,1002.67
2018-11-11T02:32:35.897Z,1002.66
2018-11-11T02:32:36.460Z,1002.67
2018-11-11T02:32:37.065Z,1002.64
2018-11-11T02:32:37.660Z,1002.67
2018-11-11T02:32:38.260Z,1002.68
2018-11-11T02:32:38.859Z,1002.66
2018-11-11T02:32:39.458Z,1002.64
2018-11-11T02:32:40.060Z,1002.65
2018-11-11T02:33:34.537Z,1002.66
2018-11-11T02:33:35.135Z,1002.63
2018-11-11T02:33:35.738Z,1002.63
2018-11-11T02:33:36.336Z,1002.65
2018-11-11T02:33:36.935Z,1002.66
2018-11-11T02:33:37.534Z,1002.67
2018-11-11T02:33:38.135Z,1002.67
2018-11-11T02:33:38.735Z,1002.66
2018-11-11T02:34:33.214Z,1002.63
2018-11-11T02:34:33.811Z,1002.65
2018-11-11T02:34:34.411Z,1002.65
2018-11-11T02:34:35.014Z,1002.64
2018-11-11T02:34:35.611Z,1002.68
2018-11-11T02:34:36.210Z,1002.67
2018-11-11T02:34:36.811Z,1002.64
2018-11-11T02:34:37.412Z,1002.63
2018-11-11T02:35:31.892Z,1002.67
2018-11-11T02:35:32.489Z,1002.68
2018-11-11T02:35:33.087Z,1002.67
2018-11-11T02:35:33.686Z,1002.65
2018-11-11T02:35:34.289Z,1002.69
2018-11-11T02:35:34.885Z,1002.64
2018-11-11T02:35:35.484Z,1002.63
2018-11-11T02:35:36.084Z,1002.62
2018-11-11T02:36:29.541Z,1002.59
2018-11-11T02:36:30.150Z,1002.62
2018-11-11T02:36:30.737Z,1002.60
2018-11-11T02:36:31.338Z,1002.60
2018-11-11T02:36:31.938Z,1002.64
2018-11-11T02:36:32.538Z,1002.62
2018-11-11T02:36:33.145Z,1002.61
2018-11-11T02:36:33.740Z,1002.60
2018-11-11T02:37:28.238Z,1002.57
2018-11-11T02:37:28.893Z,1002.54
2018-11-11T02:37:29.504Z,1002.58
2018-11-11T02:37:30.079Z,1002.60
2018-11-11T02:37:30.676Z,1002.59
2018-11-11T02:37:31.275Z,1002.56
2018-11-11T02:37:31.878Z,1002.55
2018-11-11T02:37:32.437Z,1002.59
2018-11-11T02:38:26.920Z,1002.56
2018-11-11T02:38:27.502Z,1002.53
2018-11-11T02:38:28.093Z,1002.58
2018-11-11T02:38:28.694Z,1002.53
2018-11-11T02:38:29.291Z,1002.57
2018-11-11T02:38:29.890Z,1002.56
2018-11-11T02:38:30.492Z,1002.55
2018-11-11T02:38:31.090Z,1002.53
2018-11-11T02:39:24.544Z,1002.59
2018-11-11T02:39:25.142Z,1002.57
2018-11-11T02:39:25.744Z,1002.58
2018-11-11T02:39:26.346Z,1002.58
2018-11-11T02:39:26.943Z,1002.58
2018-11-11T02:39:27.543Z,1002.54
2018-11-11T02:39:28.142Z,1002.56
2018-11-11T02:39:28.743Z,1002.57
2018-11-11T02:40:23.221Z,1002.59
2018-11-11T02:40:23.823Z,1002.58
2018-11-11T02:40:24.419Z,1002.58
2018-11-11T02:40:25.052Z,1002.59
2018-11-11T02:40:25.617Z,1002.58
2018-11-11T02:40:26.217Z,1002.56
2018-11-11T02:40:26.816Z,1002.60
2018-11-11T02:40:27.416Z,1002.59
2018-11-11T02:41:21.896Z,1002.61
2018-11-11T02:41:22.492Z,1002.62
2018-11-11T02:41:23.093Z,1002.62
2018-11-11T02:41:23.694Z,1002.58
2018-11-11T02:41:24.293Z,1002.60
2018-11-11T02:41:24.897Z,1002.62
2018-11-11T02:41:25.492Z,1002.63
2018-11-11T02:41:26.093Z,1002.64
2018-11-11T02:42:20.573Z,1002.61
2018-11-11T02:42:21.171Z,1002.62
2018-11-11T02:42:21.770Z,1002.61
2018-11-11T02:42:22.369Z,1002.59
2018-11-11T02:42:22.972Z,1002.61
2018-11-11T02:42:23.570Z,1002.57
2018-11-11T02:42:24.169Z,1002.62
2018-11-11T02:42:24.768Z,1002.60
2018-11-11T02:43:18.250Z,1002.61
2018-11-11T02:43:18.823Z,1002.60
2018-11-11T02:43:19.420Z,1002.60
2018-11-11T02:43:20.023Z,1002.62
2018-11-11T02:43:20.622Z,1002.59
2018-11-11T02:43:21.221Z,1002.60
2018-11-11T02:43:21.824Z,1002.61
2018-11-11T02:43:22.425Z,1002.61
2018-11-11T02:44:18.989Z,1002.60
2018-11-11T02:44:19.493Z,1002.60
2018-11-11T02:44:20.092Z,1002.58
2018-11-11T02:44:20.691Z,1002.62
2018-11-11T02:44:21.291Z,1002.60
2018-11-11T02:45:14.758Z,1002.60
2018-11-11T02:45:15.353Z,1002.60
2018-11-11T02:45:15.957Z,1002.60
2018-11-11T02:45:16.552Z,1002.60
2018-11-11T02:45:17.155Z,1002.60
2018-11-11T02:45:17.753Z,1002.63
2018-11-11T02:45:18.354Z,1002.61
2018-11-11T02:45:19.042Z,1002.62
2018-11-11T02:46:12.409Z,1002.65
2018-11-11T02:46:13.006Z,1002.61
2018-11-11T02:46:13.605Z,1002.59
2018-11-11T02:46:14.204Z,1002.59
2018-11-11T02:46:14.805Z,1002.64
2018-11-11T02:46:15.404Z,1002.61
2018-11-11T02:46:16.004Z,1002.61
2018-11-11T02:46:16.604Z,1002.60
2018-11-11T02:47:11.083Z,1002.63
2018-11-11T02:47:11.681Z,1002.64
2018-11-11T02:47:12.285Z,1002.65
2018-11-11T02:47:12.881Z,1002.65
2018-11-11T02:47:13.480Z,1002.61
2018-11-11T02:47:14.079Z,1002.64
2018-11-11T02:47:14.680Z,1002.64
2018-11-11T02:47:15.279Z,1002.64
2018-11-11T02:48:08.765Z,1002.69
2018-11-11T02:48:09.332Z,1002.69
2018-11-11T02:48:09.933Z,1002.68
2018-11-11T02:48:10.532Z,1002.69
2018-11-11T02:48:11.131Z,1002.69
2018-11-11T02:48:11.733Z,1002.64
2018-11-11T02:48:12.332Z,1002.67
2018-11-11T02:48:12.931Z,1002.66
2018-11-11T02:49:07.410Z,1002.67
2018-11-11T02:49:08.007Z,1002.70
2018-11-11T02:49:08.606Z,1002.70
2018-11-11T02:49:09.207Z,1002.70
2018-11-11T02:49:09.807Z,1002.69
2018-11-11T02:49:10.406Z,1002.72
2018-11-11T02:49:11.007Z,1002.70
2018-11-11T02:49:11.606Z,1002.68
2018-11-11T02:50:06.087Z,1002.72
2018-11-11T02:50:06.683Z,1002.73
2018-11-11T02:50:07.294Z,1002.70
2018-11-11T02:50:07.947Z,1002.72
2018-11-11T02:50:08.482Z,1002.71
2018-11-11T02:50:09.083Z,1002.71
2018-11-11T02:50:09.684Z,1002.73
2018-11-11T02:50:10.285Z,1002.74
2018-11-11T02:51:03.738Z,1002.74
2018-11-11T02:51:04.337Z,1002.75
2018-11-11T02:51:04.937Z,1002.73
2018-11-11T02:51:05.536Z,1002.73
2018-11-11T02:51:06.137Z,1002.79
2018-11-11T02:51:06.736Z,1002.74
2018-11-11T02:51:07.335Z,1002.72
2018-11-11T02:51:07.936Z,1002.70
2018-11-11T02:52:02.415Z,1002.78
2018-11-11T02:52:03.011Z,1002.77
2018-11-11T02:52:03.610Z,1002.79
2018-11-11T02:52:04.210Z,1002.78
2018-11-11T02:52:04.810Z,1002.76
2018-11-11T02:52:05.409Z,1002.79
2018-11-11T02:52:06.010Z,1002.77
2018-11-11T02:52:06.610Z,1002.76
2018-11-11T02:53:00.090Z,1002.81
2018-11-11T02:53:00.666Z,1002.83
2018-11-11T02:53:01.263Z,1002.81
2018-11-11T02:53:01.896Z,1002.81
2018-11-11T02:53:02.463Z,1002.83
2018-11-11T02:53:03.062Z,1002.82
2018-11-11T02:53:03.663Z,1002.84
2018-11-11T02:53:04.263Z,1002.80
2018-11-11T02:53:58.743Z,1002.81
2018-11-11T02:53:59.339Z,1002.82
2018-11-11T02:53:59.939Z,1002.85
2018-11-11T02:54:00.538Z,1002.84
2018-11-11T02:54:01.139Z,1002.84
2018-11-11T02:54:01.738Z,1002.82
2018-11-11T02:54:02.358Z,1002.81
2018-11-11T02:54:02.940Z,1002.80
2018-11-11T02:54:57.417Z,1002.81
2018-11-11T02:54:58.013Z,1002.82
2018-11-11T02:54:58.616Z,1002.83
2018-11-11T02:54:59.213Z,1002.83
2018-11-11T02:54:59.814Z,1002.84
2018-11-11T02:55:00.417Z,1002.84
2018-11-11T02:55:01.015Z,1002.82
2018-11-11T02:55:01.614Z,1002.83
2018-11-11T02:55:56.092Z,1002.81
2018-11-11T02:55:56.690Z,1002.84
2018-11-11T02:55:57.289Z,1002.81
2018-11-11T02:55:57.888Z,1002.81
2018-11-11T02:55:58.489Z,1002.80
2018-11-11T02:55:59.089Z,1002.81
2018-11-11T02:55:59.689Z,1002.81
2018-11-11T02:56:00.289Z,1002.82
2018-11-11T02:56:53.744Z,1002.80
2018-11-11T02:56:54.342Z,1002.83
2018-11-11T02:56:54.944Z,1002.80
2018-11-11T02:56:55.543Z,1002.82
2018-11-11T02:56:56.142Z,1002.84
2018-11-11T02:56:56.741Z,1002.78
2018-11-11T02:56:57.342Z,1002.80
2018-11-11T02:56:57.942Z,1002.80
2018-11-11T02:57:51.428Z,1002.82